ADDS METAR Data INFO
IDs: Format: Raw Decoded Include TAF

Data at: 1534 UTC 25 Feb 2018

METAR for:KDAB (Daytona Beach Intl, FL, US)
Text:KDAB 251453Z 20010KT 10SM FEW020 SCT085 24/19 A3020 RMK AO2 SLP226 T02440194 51004
Temperature: 24.4°C ( 76°F)
Dewpoint: 19.4°C ( 67°F) [RH = 74%]
Pressure (altimeter):30.20 inches Hg (1022.8 mb) [Sea level pressure: 1022.6 mb]
Winds:from the SSW (200 degrees) at 12 MPH (10 knots; 5.1 m/s)
Visibility:10 or more sm (16+ km)
Ceiling:at least 12,000 feet AGL
Clouds: few clouds at 2000 feet AGL, scattered clouds at 8500 feet AGL